createdAt,value
2019-03-26T00:01:48.644Z,6.37
2019-03-26T00:04:17.063Z,5.77
2019-03-26T00:06:45.455Z,6.13
2019-03-26T00:09:16.974Z,6.03
2019-03-26T00:11:45.726Z,7.70
2019-03-26T00:14:14.121Z,6.47
2019-03-26T00:16:42.701Z,6.80
2019-03-26T00:19:11.091Z,6.63
2019-03-26T00:21:39.743Z,8.20
2019-03-26T00:24:08.150Z,8.13
2019-03-26T00:26:36.542Z,6.87
2019-03-26T00:29:05.323Z,8.73
2019-03-26T00:31:33.783Z,8.57
2019-03-26T00:34:02.187Z,9.03
2019-03-26T00:36:30.607Z,7.60
2019-03-26T00:38:58.995Z,9.37
2019-03-26T00:41:27.426Z,8.70
2019-03-26T00:43:56.075Z,9.03
2019-03-26T00:46:24.534Z,7.80
2019-03-26T00:48:52.946Z,9.20
2019-03-26T00:51:21.342Z,9.33
2019-03-26T00:53:49.752Z,9.37
2019-03-26T00:56:18.151Z,10.30
2019-03-26T00:58:46.831Z,9.27
2019-03-26T01:01:15.498Z,9.70
2019-03-26T01:03:43.983Z,10.30
2019-03-26T01:06:12.389Z,10.03
2019-03-26T01:08:40.881Z,11.23
2019-03-26T01:11:09.283Z,11.00
2019-03-26T01:13:37.681Z,11.13
2019-03-26T01:16:06.158Z,11.07
2019-03-26T01:18:34.591Z,11.43
2019-03-26T01:21:02.982Z,10.73
2019-03-26T01:23:31.453Z,10.53
2019-03-26T01:25:59.869Z,8.87
2019-03-26T01:28:28.339Z,9.13
2019-03-26T01:30:56.861Z,8.67
2019-03-26T01:33:25.253Z,8.83
2019-03-26T01:35:53.652Z,8.33
2019-03-26T01:38:22.063Z,7.63
2019-03-26T01:40:50.450Z,8.07
2019-03-26T01:43:18.854Z,8.10
2019-03-26T01:45:47.256Z,9.20
2019-03-26T01:48:15.662Z,7.00
2019-03-26T01:50:44.093Z,7.67
2019-03-26T01:53:12.528Z,7.30
2019-03-26T01:55:40.938Z,7.30
2019-03-26T01:58:09.343Z,7.57
2019-03-26T02:00:37.879Z,7.80
2019-03-26T02:03:06.292Z,7.60
2019-03-26T02:05:34.686Z,8.37
2019-03-26T02:08:03.082Z,7.43
2019-03-26T02:10:31.586Z,7.53
2019-03-26T02:13:00.006Z,7.87
2019-03-26T02:15:30.155Z,7.57
2019-03-26T02:17:59.286Z,8.63
2019-03-26T02:20:27.961Z,8.03
2019-03-26T02:22:56.521Z,8.20
2019-03-26T02:25:24.915Z,7.37
2019-03-26T02:27:53.379Z,8.20
2019-03-26T02:30:21.785Z,8.87
2019-03-26T02:32:50.249Z,8.27
2019-03-26T02:35:19.337Z,8.63
2019-03-26T02:37:47.968Z,9.40
2019-03-26T02:40:16.363Z,9.10
2019-03-26T02:42:44.778Z,9.97
2019-03-26T02:45:13.162Z,8.53
2019-03-26T02:47:41.890Z,9.13
2019-03-26T02:50:10.818Z,9.83
2019-03-26T02:52:39.167Z,8.97
2019-03-26T02:55:07.719Z,8.20
2019-03-26T02:57:36.121Z,7.93
2019-03-26T03:00:07.027Z,8.77
2019-03-26T03:02:35.510Z,7.70
2019-03-26T03:05:04.404Z,8.63
2019-03-26T03:07:32.799Z,8.20
2019-03-26T03:10:01.191Z,7.47
2019-03-26T03:12:29.604Z,7.93
2019-03-26T03:14:58.003Z,7.47
2019-03-26T03:17:26.406Z,8.07
2019-03-26T03:19:54.819Z,7.87
2019-03-26T03:22:23.252Z,7.47
2019-03-26T03:24:51.649Z,7.77
2019-03-26T03:27:20.114Z,6.97
2019-03-26T03:29:48.543Z,9.73
2019-03-26T03:32:17.032Z,8.07
2019-03-26T03:34:45.441Z,6.83
2019-03-26T03:37:14.007Z,7.40
2019-03-26T03:39:42.425Z,6.77
2019-03-26T03:42:10.833Z,7.27
2019-03-26T03:44:39.250Z,8.33
2019-03-26T03:47:08.420Z,7.77
2019-03-26T03:49:37.146Z,6.87
2019-03-26T03:52:05.835Z,8.10
2019-03-26T03:54:36.494Z,7.20
2019-03-26T03:57:06.946Z,6.93
2019-03-26T03:59:35.427Z,7.20
2019-03-26T04:02:03.835Z,8.07
2019-03-26T04:04:32.430Z,7.60
2019-03-26T04:07:00.910Z,7.60
2019-03-26T04:09:29.314Z,7.37
2019-03-26T04:11:57.718Z,9.30
2019-03-26T04:14:26.189Z,7.47
2019-03-26T04:16:54.605Z,7.90
2019-03-26T04:19:23.019Z,7.60
2019-03-26T04:21:56.166Z,8.23
2019-03-26T04:24:24.564Z,7.23
2019-03-26T04:26:52.969Z,7.97
2019-03-26T04:29:21.387Z,7.73
2019-03-26T04:31:49.809Z,8.33
2019-03-26T04:34:18.206Z,9.40
2019-03-26T04:36:46.726Z,8.57
2019-03-26T04:39:15.183Z,7.83
2019-03-26T04:41:43.670Z,8.27
2019-03-26T04:44:12.066Z,8.63
2019-03-26T04:46:40.485Z,7.73
2019-03-26T04:49:08.895Z,8.93
2019-03-26T04:51:37.314Z,9.37
2019-03-26T04:54:05.718Z,7.20
2019-03-26T04:56:34.179Z,9.50
2019-03-26T04:59:02.562Z,9.07
2019-03-26T05:01:30.986Z,9.93
2019-03-26T05:03:59.387Z,8.73
2019-03-26T05:06:37.849Z,8.17
2019-03-26T05:08:59.105Z,9.37
2019-03-26T05:11:27.507Z,9.17
2019-03-26T05:13:55.979Z,8.47
2019-03-26T05:16:24.562Z,7.93
2019-03-26T05:18:52.954Z,8.67
2019-03-26T05:21:21.362Z,8.30
2019-03-26T05:23:51.886Z,9.00
2019-03-26T05:26:19.940Z,8.87
2019-03-26T05:28:48.366Z,9.03
2019-03-26T05:31:16.783Z,9.03
2019-03-26T05:33:45.180Z,9.30
2019-03-26T05:36:13.659Z,9.30
2019-03-26T05:38:42.063Z,8.73
2019-03-26T05:41:10.765Z,9.23
2019-03-26T05:43:39.254Z,9.27
2019-03-26T05:46:13.429Z,8.97
2019-03-26T05:48:41.839Z,8.80
2019-03-26T05:51:10.267Z,10.00
2019-03-26T05:53:38.660Z,9.40
2019-03-26T05:56:07.068Z,9.27
2019-03-26T05:58:35.546Z,10.60
2019-03-26T06:01:04.024Z,9.57
2019-03-26T06:03:32.498Z,10.77
2019-03-26T06:06:00.941Z,10.53
2019-03-26T06:08:29.363Z,11.07
2019-03-26T06:10:57.767Z,10.57
2019-03-26T06:13:26.190Z,10.30
2019-03-26T06:15:54.573Z,10.30
2019-03-26T06:18:23.199Z,10.70
2019-03-26T06:20:52.895Z,10.37
2019-03-26T06:23:21.383Z,10.53
2019-03-26T06:25:49.784Z,10.20
2019-03-26T06:28:18.374Z,10.20
2019-03-26T06:30:47.079Z,10.03
2019-03-26T06:33:15.478Z,10.60
2019-03-26T06:35:43.881Z,10.97
2019-03-26T06:38:12.290Z,9.33
2019-03-26T06:40:40.742Z,9.93
2019-03-26T06:43:09.230Z,9.93
2019-03-26T06:45:37.704Z,9.80
2019-03-26T06:48:06.202Z,9.77
2019-03-26T06:50:35.139Z,9.43
2019-03-26T06:53:03.536Z,8.77
2019-03-26T06:55:32.222Z,9.10
2019-03-26T06:58:00.623Z,10.33
2019-03-26T07:00:34.292Z,9.50
2019-03-26T07:03:04.595Z,10.20
2019-03-26T07:05:33.034Z,8.60
2019-03-26T07:08:01.681Z,10.00
2019-03-26T07:10:30.731Z,10.37
2019-03-26T07:12:59.284Z,9.43
2019-03-26T07:15:27.857Z,9.80
2019-03-26T07:17:56.646Z,8.90
2019-03-26T07:20:25.139Z,8.57
2019-03-26T07:22:53.605Z,9.30
2019-03-26T07:25:22.298Z,8.70
2019-03-26T07:27:50.823Z,9.13
2019-03-26T07:30:41.945Z,8.50
2019-03-26T07:33:10.972Z,7.67
2019-03-26T07:35:39.760Z,7.60
2019-03-26T07:38:08.306Z,7.27
2019-03-26T07:40:36.698Z,7.53
2019-03-26T07:43:05.537Z,7.03
2019-03-26T07:45:34.018Z,7.00
2019-03-26T07:48:02.516Z,7.63
2019-03-26T07:50:30.916Z,7.83
2019-03-26T07:52:59.342Z,7.20
2019-03-26T07:55:27.746Z,6.60
2019-03-26T07:57:56.170Z,7.17
2019-03-26T08:00:35.059Z,6.80
2019-03-26T08:03:03.601Z,5.87
2019-03-26T08:05:32.018Z,6.87
2019-03-26T08:08:00.424Z,5.13
2019-03-26T08:10:28.886Z,5.80
2019-03-26T08:12:57.325Z,6.10
2019-03-26T08:15:25.692Z,5.77
2019-03-26T08:17:54.500Z,5.60
2019-03-26T08:20:22.978Z,5.03
2019-03-26T08:22:51.459Z,5.97
2019-03-26T08:25:19.879Z,5.73
2019-03-26T08:27:48.271Z,6.07
2019-03-26T08:30:16.673Z,6.60
2019-03-26T08:32:45.086Z,5.80
2019-03-26T08:35:13.719Z,7.07
2019-03-26T08:37:42.136Z,7.40
2019-03-26T08:40:10.765Z,6.47
2019-03-26T08:42:39.154Z,5.93
2019-03-26T08:45:08.404Z,6.30
2019-03-26T08:47:36.794Z,6.03
2019-03-26T08:50:08.637Z,6.87
2019-03-26T08:52:37.305Z,6.27
2019-03-26T08:55:10.285Z,6.17
2019-03-26T08:57:38.819Z,7.27
2019-03-26T09:00:09.207Z,6.53
2019-03-26T09:02:37.596Z,6.70
2019-03-26T09:05:07.984Z,6.20
2019-03-26T09:07:36.480Z,7.40
2019-03-26T09:10:07.599Z,7.43
2019-03-26T09:12:35.990Z,7.60
2019-03-26T09:15:07.260Z,7.50
2019-03-26T09:17:35.652Z,7.30
2019-03-26T09:20:06.591Z,6.20
2019-03-26T09:22:35.130Z,6.20
2019-03-26T09:25:05.250Z,5.83
2019-03-26T09:27:36.626Z,4.90
2019-03-26T09:30:07.847Z,4.90
2019-03-26T09:32:36.297Z,4.70
2019-03-26T09:35:06.868Z,4.60
2019-03-26T09:37:54.622Z,5.03
2019-03-26T09:40:23.054Z,4.50
2019-03-26T09:42:51.443Z,5.33
2019-03-26T09:45:20.117Z,5.10
2019-03-26T09:47:48.554Z,5.07
2019-03-26T09:50:20.020Z,3.97
2019-03-26T09:52:48.446Z,5.60
2019-03-26T09:55:16.859Z,4.60
2019-03-26T09:57:45.299Z,4.67
2019-03-26T10:00:13.883Z,4.27
2019-03-26T10:02:43.382Z,4.67
2019-03-26T10:05:12.573Z,5.07
2019-03-26T10:07:40.992Z,4.80
2019-03-26T10:10:09.998Z,4.87
2019-03-26T10:12:38.432Z,5.00
2019-03-26T10:15:07.074Z,4.90
2019-03-26T10:17:35.750Z,4.80
2019-03-26T10:20:06.794Z,4.77
2019-03-26T10:22:36.834Z,5.20
2019-03-26T10:25:11.229Z,4.80
2019-03-26T10:27:39.742Z,5.07
2019-03-26T10:30:10.540Z,4.70
2019-03-26T10:32:39.463Z,5.33
2019-03-26T10:35:09.134Z,5.00
2019-03-26T10:37:37.602Z,4.47
2019-03-26T10:40:06.943Z,4.70
2019-03-26T10:42:35.370Z,4.70
2019-03-26T10:45:05.549Z,4.53
2019-03-26T10:47:34.019Z,5.37
2019-03-26T10:50:02.482Z,4.97
2019-03-26T10:52:34.262Z,4.90
2019-03-26T10:55:01.275Z,4.77
2019-03-26T10:57:29.666Z,4.63
2019-03-26T10:59:58.082Z,5.00
2019-03-26T11:02:26.495Z,5.60
2019-03-26T11:04:55.546Z,4.97
2019-03-26T11:07:24.190Z,5.07
2019-03-26T11:09:52.662Z,4.80
2019-03-26T11:12:21.296Z,4.07
2019-03-26T11:14:50.124Z,4.60
2019-03-26T11:17:18.559Z,3.90
2019-03-26T11:19:46.990Z,3.63
2019-03-26T11:22:15.398Z,2.90
2019-03-26T11:24:43.792Z,3.10
2019-03-26T11:27:12.273Z,3.10
2019-03-26T11:29:40.679Z,3.37
2019-03-26T11:32:09.228Z,3.27
2019-03-26T11:34:37.614Z,3.87
2019-03-26T11:37:06.066Z,3.43
2019-03-26T11:39:34.458Z,3.73
2019-03-26T11:42:02.946Z,3.30
2019-03-26T11:44:31.330Z,2.97
2019-03-26T11:46:59.743Z,2.87
2019-03-26T11:49:28.167Z,2.43
2019-03-26T11:51:56.584Z,2.57
2019-03-26T11:54:24.982Z,2.57
2019-03-26T11:56:53.475Z,3.00
2019-03-26T11:59:22.026Z,2.50
2019-03-26T12:01:52.449Z,2.93
2019-03-26T12:04:20.688Z,3.10
2019-03-26T12:06:49.098Z,3.77
2019-03-26T12:09:17.819Z,3.90
2019-03-26T12:11:46.230Z,3.70
2019-03-26T12:14:14.622Z,3.43
2019-03-26T12:16:43.193Z,2.70
2019-03-26T12:19:11.598Z,3.27
2019-03-26T12:21:39.995Z,3.43
2019-03-26T12:24:08.437Z,2.93
2019-03-26T12:26:36.988Z,3.10
2019-03-26T12:29:05.636Z,2.63
2019-03-26T12:31:34.288Z,2.70
2019-03-26T12:34:03.922Z,2.93
2019-03-26T12:36:39.761Z,2.57
2019-03-26T12:39:04.219Z,2.60
2019-03-26T12:41:32.902Z,2.67
2019-03-26T12:44:01.331Z,2.60
2019-03-26T12:46:29.783Z,3.40
2019-03-26T12:48:58.194Z,3.17
2019-03-26T12:51:26.607Z,2.77
2019-03-26T12:53:55.018Z,2.50
2019-03-26T12:56:23.431Z,2.70
2019-03-26T12:58:52.080Z,2.70
2019-03-26T13:01:20.486Z,2.60
2019-03-26T13:03:48.876Z,2.37
2019-03-26T13:06:17.358Z,2.37
2019-03-26T13:08:45.763Z,2.53
2019-03-26T13:11:16.996Z,2.13
2019-03-26T13:13:44.337Z,2.10
2019-03-26T13:16:12.786Z,1.90
2019-03-26T13:18:41.431Z,2.43
2019-03-26T13:21:09.824Z,1.90
2019-03-26T13:23:38.445Z,2.30
2019-03-26T13:26:06.912Z,2.47
2019-03-26T13:28:35.322Z,2.57
2019-03-26T13:31:03.731Z,2.50
2019-03-26T13:33:32.142Z,2.37
2019-03-26T13:36:00.558Z,2.63
2019-03-26T13:38:28.991Z,3.63
2019-03-26T13:41:04.884Z,3.30
2019-03-26T13:43:33.326Z,3.57
2019-03-26T13:46:01.723Z,3.00
2019-03-26T13:48:30.119Z,3.00
2019-03-26T13:50:58.537Z,3.30
2019-03-26T13:53:27.067Z,3.50
2019-03-26T13:55:55.499Z,2.90
2019-03-26T13:58:23.895Z,2.80
2019-03-26T14:00:52.282Z,2.40
2019-03-26T14:03:20.806Z,3.60
2019-03-26T14:05:49.600Z,3.17
2019-03-26T14:08:18.058Z,3.43
2019-03-26T14:10:46.489Z,3.13
2019-03-26T14:13:14.918Z,3.43
2019-03-26T14:15:43.330Z,3.73
2019-03-26T14:18:11.751Z,3.77
2019-03-26T14:20:40.175Z,3.90
2019-03-26T14:23:08.604Z,4.50
2019-03-26T14:25:37.385Z,3.17
2019-03-26T14:28:05.827Z,3.10
2019-03-26T14:30:39.568Z,3.53
2019-03-26T14:33:08.548Z,3.17
2019-03-26T14:35:37.066Z,3.53
2019-03-26T14:38:05.783Z,2.93
2019-03-26T14:40:34.206Z,4.00
2019-03-26T14:43:02.673Z,3.87
2019-03-26T14:45:31.083Z,3.97
2019-03-26T14:47:59.503Z,4.03
2019-03-26T14:50:28.619Z,4.83
2019-03-26T14:52:57.053Z,4.07
2019-03-26T14:55:25.475Z,4.03
2019-03-26T14:57:54.295Z,4.20
2019-03-26T15:00:22.697Z,4.87
2019-03-26T15:02:51.281Z,4.70
2019-03-26T15:05:19.721Z,5.17
2019-03-26T15:07:48.222Z,6.47
2019-03-26T15:10:16.936Z,5.80
2019-03-26T15:12:45.351Z,5.27
2019-03-26T15:15:23.820Z,5.73
2019-03-26T15:17:52.231Z,5.13
2019-03-26T15:20:20.618Z,4.67
2019-03-26T15:22:49.056Z,5.10
2019-03-26T15:25:17.481Z,4.80
2019-03-26T15:27:45.879Z,4.40
2019-03-26T15:30:14.924Z,4.77
2019-03-26T15:32:43.494Z,4.47
2019-03-26T15:35:12.150Z,4.50
2019-03-26T15:37:40.774Z,5.30
2019-03-26T15:40:09.519Z,4.97
2019-03-26T15:42:37.926Z,5.40
2019-03-26T15:45:07.704Z,5.20
2019-03-26T15:47:36.237Z,5.30
2019-03-26T15:50:06.192Z,4.97
2019-03-26T15:52:34.663Z,4.90
2019-03-26T15:55:03.508Z,4.90
2019-03-26T15:57:31.973Z,6.20
2019-03-26T16:00:00.484Z,6.87
2019-03-26T16:02:28.918Z,7.37
2019-03-26T16:04:57.714Z,7.33
2019-03-26T16:07:26.115Z,8.10
2019-03-26T16:09:54.899Z,7.83
2019-03-26T16:12:23.482Z,7.77
2019-03-26T16:14:52.152Z,8.03
2019-03-26T16:17:20.559Z,9.00
2019-03-26T16:19:48.955Z,8.63
2019-03-26T16:22:17.941Z,8.30
2019-03-26T16:24:46.479Z,8.13
2019-03-26T16:27:14.905Z,8.30
2019-03-26T16:29:43.291Z,8.90
2019-03-26T16:32:11.712Z,8.90
2019-03-26T16:34:40.103Z,7.90
2019-03-26T16:37:08.587Z,8.33
2019-03-26T16:39:37.015Z,8.17
2019-03-26T16:42:05.438Z,8.20
2019-03-26T16:44:33.841Z,7.67
2019-03-26T16:47:02.528Z,8.03
2019-03-26T16:49:30.931Z,8.57
2019-03-26T16:51:59.341Z,7.63
2019-03-26T16:54:27.834Z,7.50
2019-03-26T16:56:56.259Z,7.90
2019-03-26T16:59:24.675Z,7.53
2019-03-26T17:01:53.418Z,7.87
2019-03-26T17:04:21.892Z,7.80
2019-03-26T17:06:50.370Z,7.90
2019-03-26T17:09:19.039Z,7.10
2019-03-26T17:11:47.437Z,7.17
2019-03-26T17:14:15.855Z,8.37
2019-03-26T17:16:44.243Z,7.20
2019-03-26T17:19:12.654Z,7.00
2019-03-26T17:21:41.050Z,6.93
2019-03-26T17:24:09.477Z,6.63
2019-03-26T17:26:37.870Z,6.73
2019-03-26T17:29:06.278Z,6.73
2019-03-26T17:31:34.708Z,8.03
2019-03-26T17:34:03.212Z,7.33
2019-03-26T17:36:31.614Z,7.17
2019-03-26T17:39:00.065Z,6.87
2019-03-26T17:41:28.693Z,6.33
2019-03-26T17:43:57.131Z,7.37
2019-03-26T17:46:25.746Z,7.00
2019-03-26T17:48:54.140Z,7.03
2019-03-26T17:51:22.642Z,7.00
2019-03-26T17:53:51.046Z,7.50
2019-03-26T17:56:20.046Z,7.03
2019-03-26T17:58:48.467Z,8.03
2019-03-26T18:01:16.998Z,6.90
2019-03-26T18:03:45.719Z,7.00
2019-03-26T18:06:14.128Z,7.13
2019-03-26T18:08:42.526Z,6.13
2019-03-26T18:11:10.938Z,6.83
2019-03-26T18:13:39.337Z,7.10
2019-03-26T18:16:07.747Z,6.53
2019-03-26T18:18:36.228Z,7.40
2019-03-26T18:21:05.825Z,7.43
2019-03-26T18:23:34.253Z,7.03
2019-03-26T18:26:02.668Z,7.37
2019-03-26T18:28:31.079Z,9.00
2019-03-26T18:30:59.647Z,8.07
2019-03-26T18:33:28.349Z,7.50
2019-03-26T18:35:56.811Z,7.73
2019-03-26T18:38:25.248Z,7.93
2019-03-26T18:40:53.735Z,7.80
2019-03-26T18:43:22.146Z,7.47
2019-03-26T18:45:50.660Z,17.77
2019-03-26T18:48:19.315Z,8.57
2019-03-26T18:50:47.776Z,9.17
2019-03-26T18:53:16.242Z,8.63
2019-03-26T18:55:44.642Z,7.27
2019-03-26T18:58:13.052Z,7.27
2019-03-26T19:00:41.515Z,6.77
2019-03-26T19:03:09.915Z,7.90
2019-03-26T19:05:38.330Z,7.97
2019-03-26T19:08:06.907Z,7.60
2019-03-26T19:10:36.036Z,8.43
2019-03-26T19:13:18.035Z,8.97
2019-03-26T19:15:34.909Z,8.63
2019-03-26T19:18:03.568Z,7.70
2019-03-26T19:20:31.974Z,9.60
2019-03-26T19:23:00.465Z,10.83
2019-03-26T19:25:29.032Z,10.77
2019-03-26T19:27:57.527Z,8.70
2019-03-26T19:30:25.983Z,9.77
2019-03-26T19:32:57.502Z,9.73
2019-03-26T19:35:24.519Z,9.50
2019-03-26T19:37:52.979Z,10.13
2019-03-26T19:40:21.391Z,10.30
2019-03-26T19:42:49.824Z,10.50
2019-03-26T19:45:18.221Z,9.90
2019-03-26T19:47:46.622Z,11.00
2019-03-26T19:50:15.467Z,10.70
2019-03-26T19:52:43.865Z,11.47
2019-03-26T19:55:12.510Z,11.87
2019-03-26T19:57:41.000Z,11.67
2019-03-26T20:00:12.554Z,12.50
2019-03-26T20:02:40.963Z,11.47
2019-03-26T20:05:10.191Z,9.23
2019-03-26T20:07:38.631Z,10.47
2019-03-26T20:10:08.111Z,10.77
2019-03-26T20:12:36.536Z,9.00
2019-03-26T20:15:08.437Z,9.53
2019-03-26T20:17:37.823Z,9.77
2019-03-26T20:20:07.393Z,9.97
2019-03-26T20:22:35.822Z,10.73
2019-03-26T20:25:06.069Z,10.47
2019-03-26T20:27:34.499Z,9.23
2019-03-26T20:30:03.387Z,9.93
2019-03-26T20:32:31.854Z,9.57
2019-03-26T20:35:00.638Z,9.33
2019-03-26T20:37:29.034Z,10.13
2019-03-26T20:39:57.451Z,11.97
2019-03-26T20:42:25.872Z,9.33
2019-03-26T20:44:54.270Z,10.47
2019-03-26T20:47:22.667Z,8.60
2019-03-26T20:49:51.188Z,9.03
2019-03-26T20:52:19.717Z,9.53
2019-03-26T20:54:48.135Z,8.87
2019-03-26T20:57:16.594Z,9.33
2019-03-26T20:59:45.071Z,8.90
2019-03-26T21:02:13.506Z,9.80
2019-03-26T21:04:41.959Z,9.00
2019-03-26T21:07:10.365Z,9.43
2019-03-26T21:09:38.771Z,10.57
2019-03-26T21:12:07.199Z,10.47
2019-03-26T21:14:35.674Z,10.47
2019-03-26T21:17:04.285Z,10.33
2019-03-26T21:19:32.960Z,10.57
2019-03-26T21:22:01.355Z,10.70
2019-03-26T21:24:29.803Z,10.27
2019-03-26T21:26:58.227Z,10.13
2019-03-26T21:29:26.616Z,9.73
2019-03-26T21:31:55.018Z,10.40
2019-03-26T21:34:30.473Z,8.27
2019-03-26T21:36:53.578Z,7.27
2019-03-26T21:39:22.044Z,8.07
2019-03-26T21:41:50.478Z,8.40
2019-03-26T21:44:18.870Z,9.13
2019-03-26T21:46:47.359Z,8.93
2019-03-26T21:49:15.774Z,9.40
2019-03-26T21:51:44.166Z,8.67
2019-03-26T21:54:12.583Z,8.77
2019-03-26T21:56:46.281Z,8.53
2019-03-26T21:59:14.954Z,9.03
2019-03-26T22:01:43.410Z,8.27
2019-03-26T22:04:11.811Z,8.40
2019-03-26T22:06:40.222Z,8.20
2019-03-26T22:09:09.090Z,8.03
2019-03-26T22:11:49.080Z,7.73
2019-03-26T22:14:17.253Z,7.60
2019-03-26T22:16:37.887Z,8.10
2019-03-26T22:19:06.282Z,8.03
2019-03-26T22:21:34.679Z,6.93
2019-03-26T22:24:03.100Z,6.53
2019-03-26T22:26:31.492Z,7.77
2019-03-26T22:28:59.974Z,7.17
2019-03-26T22:31:28.467Z,7.60
2019-03-26T22:33:56.869Z,6.63
2019-03-26T22:36:25.266Z,6.70
2019-03-26T22:38:53.688Z,6.90
2019-03-26T22:41:22.086Z,6.37
2019-03-26T22:43:50.565Z,7.53
2019-03-26T22:46:18.978Z,7.00
2019-03-26T22:48:47.431Z,6.87
2019-03-26T22:51:15.832Z,7.20
2019-03-26T22:53:44.251Z,7.50
2019-03-26T22:56:12.726Z,6.93
2019-03-26T22:58:41.119Z,6.17
2019-03-26T23:01:09.594Z,7.03
2019-03-26T23:03:37.991Z,6.93
2019-03-26T23:06:06.538Z,6.33
2019-03-26T23:08:35.031Z,6.97
2019-03-26T23:11:03.423Z,6.70
2019-03-26T23:13:31.829Z,7.43
2019-03-26T23:16:00.223Z,7.37
2019-03-26T23:18:28.614Z,6.67
2019-03-26T23:20:57.015Z,6.47
2019-03-26T23:23:25.408Z,6.87
2019-03-26T23:25:53.814Z,6.60
2019-03-26T23:28:22.214Z,6.77
2019-03-26T23:30:50.754Z,6.77
2019-03-26T23:33:19.161Z,6.27
2019-03-26T23:35:47.626Z,6.87
2019-03-26T23:38:16.018Z,7.20
2019-03-26T23:40:44.413Z,6.23
2019-03-26T23:43:12.839Z,6.90
2019-03-26T23:45:41.243Z,6.47
2019-03-26T23:48:09.670Z,5.73
2019-03-26T23:50:38.118Z,5.63
2019-03-26T23:53:06.524Z,6.40
2019-03-26T23:55:34.913Z,6.30
2019-03-26T23:58:03.360Z,6.50
